createdAt,value
2019-02-16T00:00:16.959Z,16.80
2019-02-16T00:02:49.897Z,18.03
2019-02-16T00:05:21.208Z,17.07
2019-02-16T00:07:52.401Z,17.00
2019-02-16T00:10:23.547Z,16.57
2019-02-16T00:12:55.893Z,17.80
2019-02-16T00:15:27.026Z,17.50
2019-02-16T00:17:58.271Z,17.13
2019-02-16T00:20:29.387Z,17.17
2019-02-16T00:23:00.515Z,16.13
2019-02-16T00:25:31.794Z,17.27
2019-02-16T00:28:02.920Z,16.67
2019-02-16T00:30:34.118Z,16.07
2019-02-16T00:33:05.491Z,16.43
2019-02-16T00:35:36.642Z,15.80
2019-02-16T00:38:07.911Z,16.77
2019-02-16T00:40:39.156Z,16.73
2019-02-16T00:43:10.604Z,16.70
2019-02-16T00:45:41.751Z,15.73
2019-02-16T00:48:12.905Z,16.60
2019-02-16T00:50:44.065Z,16.23
2019-02-16T00:53:15.187Z,16.23
2019-02-16T00:55:46.673Z,15.90
2019-02-16T00:58:17.797Z,16.10
2019-02-16T01:00:49.428Z,15.60
2019-02-16T01:03:20.636Z,15.93
2019-02-16T01:05:51.866Z,15.50
2019-02-16T01:08:23.104Z,16.67
2019-02-16T01:10:55.361Z,16.43
2019-02-16T01:13:26.561Z,17.17
2019-02-16T01:15:57.984Z,17.23
2019-02-16T01:18:29.105Z,16.80
2019-02-16T01:21:00.339Z,16.33
2019-02-16T01:23:31.478Z,16.07
2019-02-16T01:26:02.957Z,15.97
2019-02-16T01:28:34.161Z,17.07
2019-02-16T01:31:05.389Z,15.87
2019-02-16T01:33:36.987Z,15.60
2019-02-16T01:36:08.108Z,16.20
2019-02-16T01:38:39.344Z,15.83
2019-02-16T01:41:10.555Z,14.87
2019-02-16T01:43:41.720Z,15.57
2019-02-16T01:46:13.107Z,16.40
2019-02-16T01:48:44.566Z,16.17
2019-02-16T01:51:16.403Z,16.53
2019-02-16T01:53:47.526Z,16.20
2019-02-16T01:56:18.820Z,16.60
2019-02-16T01:58:50.242Z,17.33
2019-02-16T02:01:21.462Z,17.17
2019-02-16T02:03:52.727Z,16.93
2019-02-16T02:06:25.013Z,16.40
2019-02-16T02:08:56.247Z,16.57
2019-02-16T02:11:27.448Z,16.70
2019-02-16T02:13:58.577Z,16.93
2019-02-16T02:16:29.714Z,16.83
2019-02-16T02:19:00.885Z,16.53
2019-02-16T02:21:40.655Z,16.13
2019-02-16T02:24:04.945Z,15.93
2019-02-16T02:26:36.183Z,16.57
2019-02-16T02:29:07.823Z,16.73
2019-02-16T02:31:38.967Z,16.80
2019-02-16T02:34:10.086Z,17.20
2019-02-16T02:36:41.738Z,17.20
2019-02-16T02:39:13.187Z,16.60
2019-02-16T02:41:44.321Z,15.77
2019-02-16T02:44:15.515Z,13.77
2019-02-16T02:46:46.734Z,13.27
2019-02-16T02:49:18.027Z,13.47
2019-02-16T02:51:52.507Z,13.67
2019-02-16T02:54:24.031Z,15.20
2019-02-16T02:56:55.251Z,14.80
2019-02-16T02:59:27.885Z,17.13
2019-02-16T03:01:59.228Z,16.40
2019-02-16T03:04:30.967Z,15.53
2019-02-16T03:07:02.263Z,16.87
2019-02-16T03:09:35.088Z,17.10
2019-02-16T03:12:07.010Z,17.90
2019-02-16T03:14:38.557Z,18.63
2019-02-16T03:17:09.935Z,18.20
2019-02-16T03:19:41.375Z,17.93
2019-02-16T03:22:12.630Z,18.07
2019-02-16T03:24:44.177Z,18.33
2019-02-16T03:27:57.767Z,17.70
2019-02-16T03:31:41.832Z,19.03
2019-02-16T03:34:20.138Z,19.03
2019-02-16T03:37:42.129Z,18.07
2019-02-16T03:40:13.766Z,17.67
2019-02-16T03:42:45.284Z,18.63
2019-02-16T03:45:18.062Z,19.27
2019-02-16T03:47:49.900Z,18.83
2019-02-16T03:50:21.482Z,19.17
2019-02-16T03:52:52.828Z,18.23
2019-02-16T03:55:24.293Z,18.70
2019-02-16T03:57:55.746Z,18.73
2019-02-16T04:00:27.146Z,19.90
2019-02-16T04:02:58.640Z,19.30
2019-02-16T04:05:30.002Z,20.10
2019-02-16T04:08:03.094Z,19.80
2019-02-16T04:10:34.491Z,21.57
2019-02-16T04:13:06.050Z,21.43
2019-02-16T04:15:37.690Z,19.73
2019-02-16T04:18:10.190Z,20.13
2019-02-16T04:20:41.445Z,19.87
2019-02-16T04:23:12.821Z,20.17
2019-02-16T04:25:44.154Z,20.37
2019-02-16T04:28:15.510Z,19.80
2019-02-16T04:30:46.927Z,19.30
2019-02-16T04:33:18.386Z,18.80
2019-02-16T04:35:50.147Z,20.83
2019-02-16T04:38:21.830Z,20.53
2019-02-16T04:40:53.308Z,19.40
2019-02-16T04:43:25.312Z,19.97
2019-02-16T04:45:56.917Z,18.93
2019-02-16T04:48:28.505Z,19.43
2019-02-16T04:50:59.927Z,19.67
2019-02-16T04:53:31.377Z,19.53
2019-02-16T04:56:03.143Z,20.20
2019-02-16T04:58:34.566Z,19.70
2019-02-16T05:01:06.346Z,18.43
2019-02-16T05:03:38.117Z,18.53
2019-02-16T05:06:10.512Z,18.43
2019-02-16T05:08:42.034Z,17.13
2019-02-16T05:11:13.392Z,18.07
2019-02-16T05:13:44.816Z,21.40
2019-02-16T05:16:16.671Z,20.40
2019-02-16T05:18:47.958Z,21.53
2019-02-16T05:21:19.266Z,20.80
2019-02-16T05:23:51.352Z,19.60
2019-02-16T05:26:22.897Z,18.70
2019-02-16T05:28:54.300Z,18.27
2019-02-16T05:31:25.638Z,19.33
2019-02-16T05:33:57.579Z,18.87
2019-02-16T05:36:28.932Z,19.00
2019-02-16T05:39:00.382Z,18.67
2019-02-16T05:41:32.269Z,18.17
2019-02-16T05:44:03.957Z,19.40
2019-02-16T05:46:35.362Z,19.77
2019-02-16T05:49:06.914Z,20.57
2019-02-16T05:51:38.493Z,20.70
2019-02-16T05:54:10.227Z,19.50
2019-02-16T05:56:41.789Z,21.37
2019-02-16T05:59:13.092Z,19.87
2019-02-16T06:01:53.588Z,20.00
2019-02-16T06:04:18.204Z,19.97
2019-02-16T06:06:50.659Z,20.43
2019-02-16T06:09:25.284Z,20.33
2019-02-16T06:11:56.727Z,19.23
2019-02-16T06:14:28.347Z,19.03
2019-02-16T06:16:59.875Z,19.33
2019-02-16T06:19:31.215Z,19.57
2019-02-16T06:22:02.639Z,17.73
2019-02-16T06:24:34.041Z,18.50
2019-02-16T06:27:05.309Z,17.90
2019-02-16T06:29:36.970Z,17.93
2019-02-16T06:32:08.398Z,17.63
2019-02-16T06:34:39.890Z,19.27
2019-02-16T06:37:24.628Z,18.10
2019-02-16T06:39:56.233Z,16.47
2019-02-16T06:42:27.980Z,17.20
2019-02-16T06:44:59.881Z,17.43
2019-02-16T06:47:31.213Z,17.83
2019-02-16T06:50:02.786Z,19.50
2019-02-16T06:52:34.300Z,19.37
2019-02-16T06:55:05.803Z,18.67
2019-02-16T06:57:37.458Z,18.87
2019-02-16T07:00:11.070Z,18.77
2019-02-16T07:02:42.268Z,19.50
2019-02-16T07:05:13.625Z,19.63
2019-02-16T07:07:45.120Z,18.93
2019-02-16T07:10:16.485Z,19.80
2019-02-16T07:12:47.850Z,19.90
2019-02-16T07:15:19.231Z,21.13
2019-02-16T07:17:53.798Z,21.00
2019-02-16T07:20:25.886Z,21.00
2019-02-16T07:22:57.305Z,23.10
2019-02-16T07:25:28.768Z,23.77
2019-02-16T07:28:00.257Z,21.20
2019-02-16T07:30:32.119Z,21.60
2019-02-16T07:33:03.628Z,22.30
2019-02-16T07:35:35.214Z,22.63
2019-02-16T07:38:06.635Z,22.47
2019-02-16T07:40:38.065Z,22.87
2019-02-16T07:43:14.615Z,22.93
2019-02-16T07:45:56.403Z,22.40
2019-02-16T07:48:52.923Z,21.13
2019-02-16T07:51:49.030Z,21.17
2019-02-16T07:54:32.321Z,21.27
2019-02-16T07:57:11.512Z,22.33
2019-02-16T08:00:02.940Z,22.50
2019-02-16T08:02:52.467Z,22.53
2019-02-16T08:05:41.748Z,22.77
2019-02-16T08:08:32.735Z,21.90
2019-02-16T08:11:32.330Z,22.47
2019-02-16T08:14:10.927Z,21.87
2019-02-16T08:16:54.211Z,22.10
2019-02-16T08:19:50.481Z,22.10
2019-02-16T08:22:28.860Z,21.40
2019-02-16T08:25:27.250Z,23.30
2019-02-16T08:28:16.156Z,22.47
2019-02-16T08:31:00.942Z,22.97
2019-02-16T08:33:44.391Z,24.03
2019-02-16T08:36:22.558Z,23.30
2019-02-16T08:39:17.961Z,23.63
2019-02-16T08:42:00.077Z,22.50
2019-02-16T08:44:53.234Z,23.30
2019-02-16T08:47:41.980Z,22.13
2019-02-16T08:50:38.357Z,22.93
2019-02-16T08:53:33.818Z,24.93
2019-02-16T08:56:33.381Z,23.87
2019-02-16T08:59:26.607Z,23.17
2019-02-16T09:02:25.981Z,23.03
2019-02-16T09:05:01.826Z,23.03
2019-02-16T09:08:04.128Z,23.77
2019-02-16T09:10:55.879Z,23.93
2019-02-16T09:13:42.329Z,23.67
2019-02-16T09:16:31.308Z,24.20
2019-02-16T09:19:20.694Z,23.73
2019-02-16T09:22:13.791Z,24.00
2019-02-16T09:25:07.141Z,22.23
2019-02-16T09:27:44.399Z,23.27
2019-02-16T09:30:46.803Z,23.47
2019-02-16T09:33:37.125Z,22.70
2019-02-16T09:36:13.775Z,22.40
2019-02-16T09:39:03.002Z,22.50
2019-02-16T09:42:00.655Z,21.97
2019-02-16T09:44:54.413Z,21.97
2019-02-16T09:47:43.824Z,23.67
2019-02-16T09:50:28.205Z,24.27
2019-02-16T09:53:18.742Z,22.40
2019-02-16T09:56:06.281Z,24.57
2019-02-16T09:58:55.806Z,23.60
2019-02-16T10:01:46.102Z,24.30
2019-02-16T10:04:39.559Z,23.87
2019-02-16T10:07:30.599Z,22.03
2019-02-16T10:10:21.026Z,23.23
2019-02-16T10:13:00.461Z,22.77
2019-02-16T10:15:49.554Z,23.97
2019-02-16T10:18:40.515Z,23.63
2019-02-16T10:21:33.281Z,23.73
2019-02-16T10:24:17.969Z,24.70
2019-02-16T10:27:07.222Z,23.33
2019-02-16T10:29:57.495Z,23.17
2019-02-16T10:32:46.752Z,22.87
2019-02-16T10:35:46.382Z,22.67
2019-02-16T10:38:34.102Z,22.20
2019-02-16T10:41:26.122Z,22.67
2019-02-16T10:44:20.375Z,22.40
2019-02-16T10:47:06.794Z,22.47
2019-02-16T10:50:00.326Z,22.33
2019-02-16T10:52:48.309Z,23.17
2019-02-16T10:55:57.032Z,24.00
2019-02-16T10:58:50.067Z,24.13
2019-02-16T11:01:43.677Z,24.23
2019-02-16T11:04:38.177Z,23.87
2019-02-16T11:07:25.492Z,25.03
2019-02-16T11:10:04.407Z,23.90
2019-02-16T11:12:54.738Z,24.47
2019-02-16T11:15:35.889Z,24.33
2019-02-16T11:18:25.238Z,24.17
2019-02-16T11:21:23.560Z,25.30
2019-02-16T11:24:12.287Z,25.60
2019-02-16T11:27:15.057Z,25.00
2019-02-16T11:29:55.530Z,26.63
2019-02-16T11:32:53.307Z,25.43
2019-02-16T11:35:46.925Z,25.77
2019-02-16T11:38:36.256Z,24.30
2019-02-16T11:41:44.898Z,24.63
2019-02-16T11:44:22.444Z,25.43
2019-02-16T11:47:15.567Z,26.20
2019-02-16T11:50:04.564Z,25.33
2019-02-16T11:52:53.609Z,24.60
2019-02-16T11:55:40.003Z,25.10
2019-02-16T11:58:36.399Z,26.07
2019-02-16T12:01:18.040Z,25.53
2019-02-16T12:03:57.691Z,23.30
2019-02-16T12:06:51.035Z,26.23
2019-02-16T12:09:40.931Z,24.57
2019-02-16T12:12:29.876Z,24.30
2019-02-16T12:15:19.182Z,26.57
2019-02-16T12:18:15.322Z,25.87
2019-02-16T12:20:58.224Z,26.53
2019-02-16T12:24:00.390Z,25.17
2019-02-16T12:26:42.899Z,26.93
2019-02-16T12:29:24.006Z,26.43
2019-02-16T12:32:32.552Z,26.73
2019-02-16T12:35:31.916Z,25.87
2019-02-16T12:38:28.312Z,26.57
2019-02-16T12:41:07.748Z,26.37
2019-02-16T12:43:48.038Z,25.63
2019-02-16T12:46:37.215Z,24.23
2019-02-16T12:49:37.848Z,25.90
2019-02-16T12:52:23.955Z,25.93
2019-02-16T12:55:14.377Z,26.97
2019-02-16T12:57:44.341Z,26.07
2019-02-16T13:00:21.113Z,26.40
2019-02-16T13:03:09.417Z,25.20
2019-02-16T13:06:15.226Z,25.23
2019-02-16T13:09:01.692Z,25.03
2019-02-16T13:11:52.623Z,23.97
2019-02-16T13:14:42.873Z,25.10
2019-02-16T13:17:26.048Z,24.40
2019-02-16T13:20:22.320Z,25.23
2019-02-16T13:24:08.968Z,24.30
2019-02-16T13:26:29.332Z,24.57
2019-02-16T13:29:09.740Z,23.10
2019-02-16T13:32:03.015Z,22.97
2019-02-16T13:34:56.332Z,23.33
2019-02-16T13:37:33.424Z,22.67
2019-02-16T13:40:22.968Z,23.70
2019-02-16T13:43:13.753Z,23.03
2019-02-16T13:46:04.194Z,21.90
2019-02-16T13:48:54.989Z,21.93
2019-02-16T13:51:33.290Z,22.07
2019-02-16T13:54:13.086Z,23.17
2019-02-16T13:57:03.347Z,22.30
2019-02-16T13:59:57.666Z,22.23
2019-02-16T14:02:51.524Z,21.70
2019-02-16T14:05:40.309Z,22.07
2019-02-16T14:08:20.021Z,21.97
2019-02-16T14:10:57.109Z,21.03
2019-02-16T14:13:47.407Z,20.87
2019-02-16T14:16:32.231Z,21.90
2019-02-16T14:19:04.745Z,19.63
2019-02-16T14:21:36.088Z,20.83
2019-02-16T14:24:07.489Z,20.07
2019-02-16T14:26:38.813Z,20.13
2019-02-16T14:29:10.202Z,20.60
2019-02-16T14:31:41.510Z,19.63
2019-02-16T14:34:12.918Z,21.37
2019-02-16T14:36:45.528Z,22.37
2019-02-16T14:39:28.248Z,21.97
2019-02-16T14:41:59.939Z,22.43
2019-02-16T14:44:31.349Z,21.97
2019-02-16T14:47:02.795Z,22.17
2019-02-16T14:49:34.113Z,21.93
2019-02-16T14:52:05.577Z,22.33
2019-02-16T14:54:36.948Z,23.10
2019-02-16T14:57:08.617Z,22.97
2019-02-16T14:59:39.836Z,22.23
2019-02-16T15:02:11.180Z,22.77
2019-02-16T15:04:42.567Z,22.40
2019-02-16T15:07:14.070Z,23.40
2019-02-16T15:09:45.632Z,21.70
2019-02-16T15:12:17.044Z,22.40
2019-02-16T15:14:48.319Z,21.77
2019-02-16T15:17:19.519Z,21.80
2019-02-16T15:19:50.940Z,22.43
2019-02-16T15:22:22.242Z,21.50
2019-02-16T15:24:53.606Z,21.20
2019-02-16T15:27:25.068Z,21.70
2019-02-16T15:29:56.411Z,20.87
2019-02-16T15:32:27.990Z,21.37
2019-02-16T15:34:59.732Z,21.57
2019-02-16T15:37:31.254Z,22.50
2019-02-16T15:40:02.762Z,21.23
2019-02-16T15:42:34.328Z,22.10
2019-02-16T15:45:07.351Z,21.00
2019-02-16T15:47:38.682Z,22.70
2019-02-16T15:50:12.125Z,20.93
2019-02-16T15:52:43.887Z,20.90
2019-02-16T15:55:15.230Z,20.77
2019-02-16T15:57:46.869Z,20.67
2019-02-16T16:00:27.044Z,20.70
2019-02-16T16:02:59.713Z,20.47
2019-02-16T16:05:31.113Z,21.17
2019-02-16T16:08:21.385Z,19.90
2019-02-16T16:11:14.684Z,18.20
2019-02-16T16:14:11.235Z,17.30
2019-02-16T16:17:09.741Z,17.17
2019-02-16T16:19:53.187Z,17.27
2019-02-16T16:22:43.850Z,18.00
2019-02-16T16:25:37.270Z,17.60
2019-02-16T16:28:37.610Z,18.27
2019-02-16T16:31:40.366Z,19.20
2019-02-16T16:34:24.702Z,17.37
2019-02-16T16:37:08.302Z,18.30
2019-02-16T16:40:02.849Z,17.23
2019-02-16T16:42:52.582Z,16.93
2019-02-16T16:45:42.598Z,16.47
2019-02-16T16:48:42.141Z,17.97
2019-02-16T16:51:42.305Z,17.40
2019-02-16T16:54:35.542Z,18.73
2019-02-16T16:57:15.796Z,19.30
2019-02-16T17:00:08.858Z,17.83
2019-02-16T17:02:57.393Z,19.27
2019-02-16T17:05:46.433Z,19.23
2019-02-16T17:08:26.101Z,19.57
2019-02-16T17:11:10.682Z,19.00
2019-02-16T17:14:04.104Z,21.40
2019-02-16T17:16:50.700Z,22.23
2019-02-16T17:19:30.705Z,22.63
2019-02-16T17:22:19.871Z,21.17
2019-02-16T17:25:16.083Z,21.50
2019-02-16T17:27:56.786Z,22.07
2019-02-16T17:30:45.735Z,23.23
2019-02-16T17:33:23.795Z,20.30
2019-02-16T17:36:25.790Z,21.53
2019-02-16T17:39:12.573Z,20.53
2019-02-16T17:42:00.601Z,22.20
2019-02-16T17:44:49.824Z,20.63
2019-02-16T17:47:43.793Z,20.40
2019-02-16T17:50:22.113Z,22.37
2019-02-16T17:53:07.656Z,21.30
2019-02-16T17:55:48.959Z,21.60
2019-02-16T17:58:44.108Z,20.50
2019-02-16T18:01:37.877Z,21.63
2019-02-16T18:04:32.487Z,21.77
2019-02-16T18:07:23.134Z,24.97
2019-02-16T18:10:16.944Z,24.27
2019-02-16T18:13:06.195Z,21.47
2019-02-16T18:16:15.037Z,20.93
2019-02-16T18:18:58.585Z,35.17
2019-02-16T18:22:01.229Z,34.93
2019-02-16T18:24:48.041Z,25.60
2019-02-16T18:27:43.945Z,22.77
2019-02-16T18:30:40.492Z,22.40
2019-02-16T18:33:33.780Z,22.10
2019-02-16T18:36:14.846Z,22.47
2019-02-16T18:39:04.447Z,23.23
2019-02-16T18:41:44.877Z,23.10
2019-02-16T18:44:47.232Z,22.80
2019-02-16T18:47:35.860Z,22.13
2019-02-16T18:50:16.908Z,22.87
2019-02-16T18:53:13.004Z,21.77
2019-02-16T18:55:53.065Z,24.97
2019-02-16T18:59:01.386Z,23.73
2019-02-16T19:01:57.854Z,23.87
2019-02-16T19:04:54.122Z,23.83
2019-02-16T19:07:32.684Z,25.07
2019-02-16T19:10:26.025Z,26.10
2019-02-16T19:13:26.732Z,26.10
2019-02-16T19:16:10.252Z,26.13
2019-02-16T19:18:54.042Z,26.23
2019-02-16T19:21:43.129Z,25.33
2019-02-16T19:24:21.442Z,26.90
2019-02-16T19:27:03.975Z,28.90
2019-02-16T19:29:42.475Z,26.43
2019-02-16T19:32:32.703Z,26.37
2019-02-16T19:35:13.626Z,25.57
2019-02-16T19:38:09.793Z,27.43
2019-02-16T19:40:59.183Z,25.90
2019-02-16T19:43:42.026Z,26.10
2019-02-16T19:46:38.034Z,27.63
2019-02-16T19:49:26.737Z,26.20
2019-02-16T19:52:08.422Z,26.80
2019-02-16T19:55:05.432Z,26.80
2019-02-16T19:58:01.338Z,25.33
2019-02-16T20:00:57.748Z,26.30
2019-02-16T20:03:41.768Z,27.13
2019-02-16T20:06:38.451Z,26.63
2019-02-16T20:09:41.339Z,25.63
2019-02-16T20:12:46.750Z,25.33
2019-02-16T20:15:52.312Z,25.57
2019-02-16T20:18:48.614Z,26.63
2019-02-16T20:21:47.689Z,26.23
2019-02-16T20:24:38.593Z,26.93
2019-02-16T20:27:36.727Z,26.50
2019-02-16T20:30:18.588Z,26.73
2019-02-16T20:33:04.791Z,25.73
2019-02-16T20:35:42.823Z,25.87
2019-02-16T20:38:33.400Z,26.07
2019-02-16T20:41:41.968Z,26.93
2019-02-16T20:44:23.114Z,26.17
2019-02-16T20:47:22.167Z,27.37
2019-02-16T20:50:18.476Z,27.13
2019-02-16T20:53:03.396Z,27.00
2019-02-16T20:55:46.816Z,27.63
2019-02-16T20:58:28.336Z,27.20
2019-02-16T21:01:34.014Z,26.97
2019-02-16T21:04:24.463Z,27.90
2019-02-16T21:07:27.070Z,26.83
2019-02-16T21:10:20.278Z,24.37
2019-02-16T21:12:59.338Z,24.50
2019-02-16T21:16:08.141Z,23.73
2019-02-16T21:19:06.029Z,24.70
2019-02-16T21:21:59.311Z,23.67
2019-02-16T21:24:39.970Z,24.20
2019-02-16T21:27:24.599Z,24.37
2019-02-16T21:30:08.170Z,24.90
2019-02-16T21:32:55.015Z,23.60
2019-02-16T21:35:44.162Z,25.23
2019-02-16T21:38:36.076Z,26.00
2019-02-16T21:41:26.334Z,26.70
2019-02-16T21:44:25.667Z,25.50
2019-02-16T21:47:06.085Z,24.27
2019-02-16T21:50:08.402Z,25.20
2019-02-16T21:52:58.660Z,23.30
2019-02-16T21:55:45.229Z,23.10
2019-02-16T21:58:29.967Z,25.23
2019-02-16T22:01:11.680Z,25.50
2019-02-16T22:04:11.270Z,25.33
2019-02-16T22:07:00.911Z,26.33
2019-02-16T22:09:50.530Z,23.73
2019-02-16T22:12:30.458Z,25.23
2019-02-16T22:15:02.609Z,24.40
2019-02-16T22:17:34.472Z,23.77
2019-02-16T22:20:06.262Z,23.60
2019-02-16T22:22:38.849Z,24.00
2019-02-16T22:25:10.405Z,24.77
2019-02-16T22:27:41.809Z,24.00
2019-02-16T22:30:13.567Z,24.87
2019-02-16T22:32:44.892Z,24.37
2019-02-16T22:35:16.217Z,25.33
2019-02-16T22:37:47.750Z,23.97
2019-02-16T22:40:19.557Z,23.73
2019-02-16T22:42:50.935Z,24.77
2019-02-16T22:45:22.633Z,23.47
2019-02-16T22:47:54.019Z,24.20
2019-02-16T22:50:25.794Z,23.80
2019-02-16T22:52:57.204Z,24.60
2019-02-16T22:55:28.535Z,29.90
2019-02-16T22:57:59.883Z,26.93
2019-02-16T23:00:45.092Z,26.37
2019-02-16T23:03:18.304Z,26.97
2019-02-16T23:05:49.987Z,26.60
2019-02-16T23:08:21.521Z,25.70
2019-02-16T23:10:52.860Z,25.57
2019-02-16T23:13:24.364Z,26.57
2019-02-16T23:15:55.721Z,25.43
2019-02-16T23:18:27.484Z,24.57
2019-02-16T23:20:58.772Z,24.43
2019-02-16T23:23:30.076Z,24.83
2019-02-16T23:26:01.431Z,23.33
2019-02-16T23:28:39.017Z,24.10
2019-02-16T23:31:06.484Z,23.70
2019-02-16T23:33:37.920Z,24.80
2019-02-16T23:36:09.211Z,24.43
2019-02-16T23:38:42.162Z,24.43
2019-02-16T23:41:13.639Z,24.33
2019-02-16T23:43:46.130Z,24.00
2019-02-16T23:46:17.709Z,24.20
2019-02-16T23:48:48.910Z,22.60
2019-02-16T23:51:20.305Z,21.87
2019-02-16T23:53:51.952Z,21.90
2019-02-16T23:56:23.568Z,22.17
2019-02-16T23:58:54.899Z,23.23
